De Forest, WI (53532)

10:01 PM CDT on July 30, 2016 (GMT -0500)
WX9TRS - West Acker Pkwy | | Change Station

Elev 945 ft 43.24 °N, 89.36 °W | Updated 7 seconds ago

Scattered Clouds
Scattered Clouds
64.3 °F
Feels Like 64.3 °F
N
0.1
Wind Variable Wind from ENE
Gusts 1.2 mph

Today
High -- | Low -- °F
--% Chance of Precip.
Yesterday
High -- | Low -- °F
Precip. -- in
Pressure 30.03 in
Visibility 10.0 miles
Clouds Few 16000 ft
Scattered Clouds 25000 ft
Dew Point 57 °F
Humidity 78%
Rainfall 0.00 in
Snow Depth Not available.
5:46 AM 8:20 PM
Waning Crescent, 9% visible
METAR KMSN 310253Z 00000KT 10SM FEW160 SCT250 19/14 A3003 RMK AO2 SLP167 T01890139 53011
Pressure 30.03 in
Visibility 10.0 miles
Clouds Few 16000 ft
Scattered Clouds 25000 ft
Dew Point 57 °F
Humidity 78%
Rainfall 0.00 in
Snow Depth Not available.
5:46 AM 8:20 PM
Waning Crescent, 9% visible
METAR KMSN 310253Z 00000KT 10SM FEW160 SCT250 19/14 A3003 RMK AO2 SLP167 T01890139 53011

10-Day Weather Forecast

Almanac

Astronomy

Jul. 30, 2016 Rise Set
Actual Time
Civil Twilight
Nautical Twilight
Astronomical Twilight
Moon
Length of Visible Light
Length of Day
Tomorrow will be .
, % of the Moon is Illuminated

Today's Extremes

State Highs State Lows

Community

WunderPhotos

Upload Photos

1,928,725 photos uploaded!

WunderBlog® & News

Nearby

Air Quality

  Air Quality AQ Index Pollutant
Not available.

Snow Depth

Station Depth Elevation

Earthquake Activity

City Distance Mag. Time & Date
Minimum magnitude displayed is 2.5.

Coastal Water Temperatures

Place Temperature

Stations

Nearby Weather Stations

Station Location Temp. Windchill Dew Point Humidity Wind Precip. Elev Updated Type
                   

Watches & Warnings

There are currently no watches in effect.